Huvudsida
METAR-TAF:

METAR-TAF

Flygplatser :

Arvidsjaur flygplats

Arvidsjaur, Sverige

latitud: 65-35-25N, longitud: 019-16-55E, höjd: 379 m

Aktuellt väderrapport

Denna rapport gjordes för 10 minuter sedan, klockan 11:50 UTC
Vind 13 kt från syd/sydost
Temperatur 17°C
Fuktighet 68%
Tryck 1009 hPa
Sikt 10 km eller mer

METAR: ESNX 161150Z AUTO 15013KT 9999 FEW026/// OVC034/// 17/11 Q1009

Tid: 14:00 (12:00 UTC)

Väderprognos

Denna rapport gjordes för 6 timmar och 30 minuter sedan, klockan 05:30 UTC
Prognos gäller från 16 kl. 06 UTC till 16 kl. 09 UTC
Vind 12 kt från syd
Sikt 10 km eller mer
Inga moln under 1 500 m eller inga cumulonimbus
Sannolikhet 40%
från 16 kl. 06 UTC till 16 kl. 08 UTC
Brutna moln på en höjd av 1200 ft

TAF: ESNX 160530Z 1606/1609 18012KT CAVOK PROB40 1606/1608 BKN012

Aktuella väderrapporter och prognoser från 4000 flygplatser (METAR- och TAF-rapporter).

De tillgängliga stationerna syns som gula och röda prickar på kartan.

För musen över prickarna för att se namnen på stationerna.

Klicka sedan för att få väderrapporter och prognoser.

För att ändra kartan: Klicka på de gröna knapparna med ett svart kors på för att zooma in; den gröna knappen med ett streck på för att zooma ut; eller på de gröna pilarna för angränsande kartor.


METAR-TAF: